Time;durP1;ratioP1;P1;durP2;ratioP2;P2;SDS_P1;SDS_P2;PMS_P1;PMS_P2;Temp;Humidity;BMP_temperature;BMP_pressure;BME280_temperature;BME280_humidity;BME280_pressure;Samples;Min_cycle;Max_cycle;Signal;HPM_P1;HPM_P2
2022/08/03 00:00:38;;;;;;;6.03;2.90;;;23.70;99.90;;;;;;5045437;28;20064;-74
2022/08/03 00:03:04;;;;;;;7.95;3.08;;;23.60;99.90;;;;;;5044844;28;20128;-74
2022/08/03 00:05:32;;;;;;;4.47;2.70;;;23.60;99.90;;;;;;5042719;28;20100;-74
2022/08/03 00:08:00;;;;;;;7.78;3.13;;;23.60;99.90;;;;;;5044756;28;20032;-75
2022/08/03 00:10:26;;;;;;;5.65;2.83;;;23.60;99.90;;;;;;5041477;28;20029;-75
2022/08/03 00:12:52;;;;;;;5.13;2.92;;;23.50;99.90;;;;;;5041878;28;20026;-74
2022/08/03 00:15:18;;;;;;;5.55;3.30;;;23.50;99.90;;;;;;5035398;28;20160;-74
2022/08/03 00:17:45;;;;;;;11.55;3.88;;;23.40;99.90;;;;;;5036421;28;20079;-73
2022/08/03 00:20:11;;;;;;;5.95;3.80;;;23.50;99.90;;;;;;5043743;28;20090;-74
2022/08/03 00:22:36;;;;;;;8.45;3.72;;;23.40;99.90;;;;;;5044703;28;20040;-74
2022/08/03 00:25:02;;;;;;;6.70;3.60;;;23.40;99.90;;;;;;5045535;28;20394;-74
2022/08/03 00:27:28;;;;;;;5.95;3.90;;;23.40;99.90;;;;;;5043952;28;20040;-75
2022/08/03 00:29:54;;;;;;;6.85;3.22;;;23.40;99.90;;;;;;5048710;28;20025;-74
2022/08/03 00:32:19;;;;;;;6.00;3.60;;;23.30;99.90;;;;;;5041456;28;20017;-74
2022/08/03 00:34:45;;;;;;;7.80;3.53;;;23.30;99.90;;;;;;5038637;28;20036;-73
2022/08/03 00:37:11;;;;;;;8.13;3.50;;;23.30;99.90;;;;;;5043787;28;20012;-75
2022/08/03 00:39:36;;;;;;;8.30;3.30;;;23.20;99.90;;;;;;5040162;28;20473;-74
2022/08/03 00:42:05;;;;;;;7.88;3.83;;;23.20;99.90;;;;;;5041945;28;20437;-75
2022/08/03 00:44:38;;;;;;;5.60;2.90;;;23.10;99.90;;;;;;5041543;28;20113;-75
2022/08/03 00:47:03;;;;;;;6.47;3.20;;;23.20;99.90;;;;;;5042825;28;20083;-74
2022/08/03 00:49:29;;;;;;;7.22;3.63;;;23.10;99.90;;;;;;5039219;28;20466;-75
2022/08/03 00:51:55;;;;;;;6.80;3.50;;;23.10;99.90;;;;;;5045071;28;20048;-75
2022/08/03 00:54:21;;;;;;;8.75;3.28;;;23.10;99.90;;;;;;5044917;28;20033;-73
2022/08/03 00:56:48;;;;;;;7.32;3.60;;;23.10;99.90;;;;;;5042555;28;20029;-73
2022/08/03 00:59:15;;;;;;;10.45;3.65;;;23.00;99.90;;;;;;5051197;28;20029;-74
2022/08/03 01:01:41;;;;;;;7.75;4.20;;;23.00;99.90;;;;;;5037412;28;20112;-74
2022/08/03 01:04:06;;;;;;;8.60;3.80;;;23.00;99.90;;;;;;5042041;28;20067;-74
2022/08/03 01:07:25;;;;;;;8.43;4.25;;;23.00;99.90;;;;;;5044351;28;20025;-74
2022/08/03 01:10:25;;;;;;;6.70;3.97;;;23.00;99.90;;;;;;5031799;28;20164;-76
2022/08/03 01:13:04;;;;;;;8.93;3.75;;;22.90;99.90;;;;;;5039306;28;20069;-74
2022/08/03 01:16:02;;;;;;;7.28;4.18;;;22.90;99.90;;;;;;5040649;28;20501;-75
2022/08/03 01:18:57;;;;;;;6.35;3.42;;;22.80;99.90;;;;;;5046035;28;20037;-75
2022/08/03 01:21:31;;;;;;;6.38;4.03;;;22.80;99.90;;;;;;5042193;28;20018;-76
2022/08/03 01:24:21;;;;;;;5.78;4.10;;;22.80;99.90;;;;;;5040369;28;20045;-76
2022/08/03 01:26:59;;;;;;;7.05;4.03;;;22.80;99.90;;;;;;5041270;28;20033;-76
2022/08/03 01:30:13;;;;;;;7.47;3.90;;;22.80;99.90;;;;;;5036245;28;20116;-75
2022/08/03 01:33:05;;;;;;;10.48;4.50;;;22.70;99.90;;;;;;5043784;28;20042;-75
2022/08/03 01:35:36;;;;;;;6.40;3.90;;;22.70;99.90;;;;;;5040234;28;20096;-75
2022/08/03 01:38:05;;;;;;;7.72;4.60;;;22.70;99.90;;;;;;5045366;28;20480;-75
2022/08/03 01:40:35;;;;;;;9.05;4.28;;;22.70;99.90;;;;;;5038817;28;20019;-75
2022/08/03 01:43:03;;;;;;;6.72;3.80;;;22.60;99.90;;;;;;5050037;28;20422;-75
2022/08/03 01:45:30;;;;;;;4.80;3.83;;;22.50;99.90;;;;;;5041762;28;20440;-75
2022/08/03 01:47:56;;;;;;;5.70;4.03;;;22.50;99.90;;;;;;5050327;28;20044;-74
2022/08/03 01:50:26;;;;;;;5.60;3.28;;;22.50;99.90;;;;;;5039717;28;20067;-75
2022/08/03 01:52:53;;;;;;;4.80;3.30;;;22.50;99.90;;;;;;5044501;28;20076;-74
2022/08/03 01:55:21;;;;;;;5.60;3.42;;;22.50;99.90;;;;;;5043101;28;20074;-73
2022/08/03 01:57:49;;;;;;;10.13;4.43;;;22.50;99.90;;;;;;5037585;28;20123;-74
2022/08/03 02:00:15;;;;;;;10.40;4.47;;;22.50;99.90;;;;;;5051398;28;20190;-73
2022/08/03 02:02:43;;;;;;;9.88;3.92;;;22.40;99.90;;;;;;5044656;28;20034;-75
2022/08/03 02:05:10;;;;;;;7.13;3.83;;;22.40;99.90;;;;;;5054230;28;20480;-74
2022/08/03 02:07:39;;;;;;;8.40;4.38;;;22.40;99.90;;;;;;5040688;28;20029;-74
2022/08/03 02:10:06;;;;;;;6.22;3.65;;;22.40;99.90;;;;;;5046820;28;20021;-74
2022/08/03 02:12:33;;;;;;;8.38;3.88;;;22.30;99.90;;;;;;5046303;28;20035;-74
2022/08/03 02:15:00;;;;;;;8.23;3.85;;;22.30;99.90;;;;;;5048295;28;20029;-73
2022/08/03 02:17:27;;;;;;;7.90;4.30;;;22.30;99.90;;;;;;5048192;28;20096;-74
2022/08/03 02:19:57;;;;;;;9.98;4.72;;;22.30;99.90;;;;;;5041993;28;20025;-74
2022/08/03 02:22:24;;;;;;;9.13;4.43;;;22.20;99.90;;;;;;5042980;28;20028;-74
2022/08/03 02:24:50;;;;;;;7.35;4.65;;;22.20;99.90;;;;;;5045575;28;20052;-74
2022/08/03 02:27:21;;;;;;;9.77;4.45;;;22.20;99.90;;;;;;5044250;28;20086;-74
2022/08/03 02:29:52;;;;;;;9.77;4.30;;;22.20;99.90;;;;;;5045709;28;20066;-74
2022/08/03 02:32:29;;;;;;;6.65;4.35;;;22.10;99.90;;;;;;5048786;28;20029;-74
2022/08/03 02:34:58;;;;;;;6.93;4.53;;;22.10;99.90;;;;;;5046393;28;20032;-74
2022/08/03 02:37:29;;;;;;;9.90;4.57;;;22.10;99.90;;;;;;5044044;28;20121;-72
2022/08/03 02:40:02;;;;;;;12.60;5.00;;;22.10;99.90;;;;;;5042350;28;20029;-74
2022/08/03 02:42:30;;;;;;;7.95;4.40;;;22.10;99.90;;;;;;5042230;28;20030;-74
2022/08/03 02:44:59;;;;;;;9.65;5.18;;;22.10;99.90;;;;;;5042321;28;20029;-74
2022/08/03 02:47:27;;;;;;;9.82;4.95;;;22.10;99.90;;;;;;5047308;28;20067;-73
2022/08/03 02:49:56;;;;;;;7.57;4.00;;;22.10;99.90;;;;;;5042605;28;20036;-74
2022/08/03 02:52:25;;;;;;;11.02;4.53;;;22.10;99.90;;;;;;5040950;28;20031;-74
2022/08/03 02:54:54;;;;;;;7.95;4.30;;;22.00;99.90;;;;;;5045066;28;20026;-74
2022/08/03 02:57:22;;;;;;;5.50;3.80;;;22.00;99.90;;;;;;5043276;28;20025;-74
2022/08/03 02:59:48;;;;;;;12.65;4.22;;;21.90;99.90;;;;;;5041086;28;20053;-73
2022/08/03 03:02:16;;;;;;;14.25;4.38;;;22.00;99.90;;;;;;5043375;28;20112;-74
2022/08/03 03:04:43;;;;;;;8.55;4.30;;;21.90;99.90;;;;;;5046198;28;20029;-74
2022/08/03 03:07:15;;;;;;;6.57;3.67;;;21.90;99.90;;;;;;5048223;28;20024;-74
2022/08/03 03:09:42;;;;;;;7.40;3.75;;;21.90;99.90;;;;;;5041765;28;20024;-74
2022/08/03 03:12:10;;;;;;;10.38;4.28;;;21.80;99.90;;;;;;5040752;28;20024;-73
2022/08/03 03:14:36;;;;;;;7.80;4.10;;;21.90;99.90;;;;;;5044535;28;20500;-74
2022/08/03 03:17:02;;;;;;;5.65;3.45;;;21.80;99.90;;;;;;5048403;28;20025;-73
2022/08/03 03:19:31;;;;;;;5.75;3.70;;;21.80;99.90;;;;;;5044732;28;20038;-74
2022/08/03 03:22:00;;;;;;;10.75;3.38;;;21.80;99.90;;;;;;5046362;28;20530;-74
2022/08/03 03:24:27;;;;;;;5.70;3.40;;;21.70;99.90;;;;;;5049187;28;20036;-74
2022/08/03 03:26:53;;;;;;;7.85;3.30;;;21.70;99.90;;;;;;5040262;28;20125;-74
2022/08/03 03:29:20;;;;;;;8.07;3.55;;;21.70;99.90;;;;;;5044018;28;20493;-75
2022/08/03 03:31:46;;;;;;;5.70;3.25;;;21.70;99.90;;;;;;5045160;28;20041;-74
2022/08/03 03:34:13;;;;;;;8.38;4.38;;;21.60;99.90;;;;;;5036764;28;20022;-74
2022/08/03 03:36:39;;;;;;;7.07;3.63;;;21.60;99.90;;;;;;5042833;28;20396;-74
2022/08/03 03:39:05;;;;;;;9.85;3.75;;;21.60;99.90;;;;;;5043417;28;20017;-74
2022/08/03 03:41:31;;;;;;;7.68;3.35;;;21.60;99.90;;;;;;5044502;28;20029;-74
2022/08/03 03:43:57;;;;;;;8.80;4.03;;;21.60;99.90;;;;;;5041270;28;20044;-74
2022/08/03 03:46:23;;;;;;;7.38;3.80;;;21.50;99.90;;;;;;5037380;28;20029;-75
2022/08/03 03:48:48;;;;;;;8.32;4.53;;;21.50;99.90;;;;;;5047637;28;20021;-74
2022/08/03 03:51:15;;;;;;;9.18;4.57;;;21.50;99.90;;;;;;5044615;28;20021;-74
2022/08/03 03:53:56;;;;;;;8.88;4.18;;;21.50;99.90;;;;;;5046726;28;20025;-74
2022/08/03 03:56:22;;;;;;;8.60;5.00;;;21.50;99.90;;;;;;5038415;28;20025;-74
2022/08/03 03:58:48;;;;;;;10.57;4.72;;;21.50;99.90;;;;;;5048334;28;20033;-74
2022/08/03 04:01:15;;;;;;;10.10;4.07;;;21.50;99.90;;;;;;5050197;28;20021;-74
2022/08/03 04:03:40;;;;;;;7.72;3.90;;;21.50;99.90;;;;;;5045141;28;20068;-74
2022/08/03 04:11:39;;;;;;;5.90;3.80;;;21.40;99.90;;;;;;5048434;28;20497;-74
2022/08/03 04:14:24;;;;;;;4.68;3.75;;;21.40;99.90;;;;;;5041240;28;20021;-73
2022/08/03 04:17:00;;;;;;;8.07;3.70;;;21.40;99.90;;;;;;5040737;28;20036;-74
2022/08/03 04:19:31;;;;;;;5.85;3.78;;;21.40;99.90;;;;;;5034046;28;20029;-73
2022/08/03 04:22:04;;;;;;;7.60;3.80;;;21.30;99.90;;;;;;5039990;28;20275;-74
2022/08/03 04:24:38;;;;;;;8.93;3.97;;;21.30;99.90;;;;;;5046415;28;20117;-73
2022/08/03 04:27:08;;;;;;;9.07;4.60;;;21.30;99.90;;;;;;5047741;28;20032;-73
2022/08/03 04:29:36;;;;;;;8.82;4.28;;;21.30;99.90;;;;;;5050493;28;20079;-74
2022/08/03 04:32:05;;;;;;;8.77;4.15;;;21.30;99.90;;;;;;5047456;28;20021;-74
2022/08/03 04:34:31;;;;;;;6.15;3.83;;;21.20;99.90;;;;;;5043745;28;20025;-74
2022/08/03 04:36:59;;;;;;;6.45;3.95;;;21.20;99.90;;;;;;5046823;28;20030;-73
2022/08/03 04:39:27;;;;;;;7.63;4.22;;;21.20;99.90;;;;;;5044053;28;20112;-74
2022/08/03 04:41:56;;;;;;;9.10;3.97;;;21.20;99.90;;;;;;5039285;28;20021;-74
2022/08/03 04:44:24;;;;;;;8.73;4.35;;;21.20;99.90;;;;;;5041143;28;20033;-74
2022/08/03 04:46:51;;;;;;;7.53;4.05;;;21.20;99.90;;;;;;5045261;28;20022;-74
2022/08/03 04:49:19;;;;;;;8.07;4.20;;;21.20;99.90;;;;;;5041528;28;20053;-74
2022/08/03 04:51:45;;;;;;;6.90;4.07;;;21.20;99.90;;;;;;5040049;28;20053;-74
2022/08/03 04:54:15;;;;;;;7.88;3.90;;;21.20;99.90;;;;;;5046214;28;20069;-74
2022/08/03 04:56:42;;;;;;;5.32;3.63;;;21.20;99.90;;;;;;5043910;28;20103;-74
2022/08/03 04:59:09;;;;;;;5.07;3.65;;;21.10;99.90;;;;;;5045877;28;20708;-74
2022/08/03 05:01:35;;;;;;;9.38;4.45;;;21.20;99.90;;;;;;5038620;28;20063;-74
2022/08/03 05:04:01;;;;;;;7.30;4.70;;;21.10;99.90;;;;;;5046069;28;20048;-74
2022/08/03 05:06:26;;;;;;;8.13;4.10;;;21.10;99.90;;;;;;5041492;28;20029;-74
2022/08/03 05:08:52;;;;;;;10.95;5.05;;;21.20;99.90;;;;;;5050855;28;20389;-74
2022/08/03 05:11:18;;;;;;;8.07;4.80;;;21.10;99.90;;;;;;5050290;28;20037;-74
2022/08/03 05:13:44;;;;;;;8.88;5.68;;;21.10;99.90;;;;;;5040286;28;20030;-74
2022/08/03 05:16:10;;;;;;;6.85;4.88;;;21.10;99.90;;;;;;5039968;28;20632;-74
2022/08/03 05:18:36;;;;;;;10.32;5.60;;;21.20;99.90;;;;;;5045281;28;20025;-74
2022/08/03 05:21:03;;;;;;;7.55;4.90;;;21.20;99.90;;;;;;5041780;28;20030;-74
2022/08/03 05:23:29;;;;;;;5.78;4.30;;;21.20;99.90;;;;;;5041290;28;20029;-74
2022/08/03 05:25:55;;;;;;;9.60;4.60;;;21.20;99.90;;;;;;5042360;28;20482;-74
2022/08/03 05:28:21;;;;;;;10.00;4.45;;;21.20;99.90;;;;;;5046429;28;20018;-74
2022/08/03 05:30:47;;;;;;;6.25;3.90;;;21.30;99.90;;;;;;5037188;28;20036;-74
2022/08/03 05:33:13;;;;;;;10.30;4.35;;;21.30;99.90;;;;;;5046420;28;20028;-74
2022/08/03 05:35:39;;;;;;;9.40;4.55;;;21.30;99.90;;;;;;5044518;28;20143;-74
2022/08/03 05:38:05;;;;;;;12.10;4.30;;;21.30;99.90;;;;;;5048106;28;20074;-74
2022/08/03 05:40:31;;;;;;;9.40;3.97;;;21.30;99.90;;;;;;5043087;28;20034;-75
2022/08/03 05:42:57;;;;;;;11.13;4.43;;;21.30;99.90;;;;;;5049538;28;20492;-74
2022/08/03 05:45:24;;;;;;;9.70;4.50;;;21.30;99.90;;;;;;5046531;28;20061;-73
2022/08/03 05:47:50;;;;;;;8.10;3.65;;;21.30;99.90;;;;;;5046635;28;20026;-73
2022/08/03 05:50:17;;;;;;;6.45;3.65;;;21.30;99.90;;;;;;5048913;28;20076;-74
2022/08/03 05:52:43;;;;;;;5.50;3.33;;;21.40;99.90;;;;;;5050794;28;20029;-74
2022/08/03 05:55:09;;;;;;;6.85;3.28;;;21.30;99.90;;;;;;5047988;28;20105;-74
2022/08/03 05:57:36;;;;;;;6.60;3.70;;;21.40;99.90;;;;;;5047404;28;20040;-74
2022/08/03 06:00:05;;;;;;;7.53;3.25;;;21.40;99.90;;;;;;5044620;28;20028;-75
2022/08/03 06:02:31;;;;;;;7.22;3.08;;;21.40;99.90;;;;;;5044222;28;20041;-74
2022/08/03 06:04:56;;;;;;;5.05;3.20;;;21.50;99.90;;;;;;5050147;28;20032;-74
2022/08/03 06:07:22;;;;;;;6.45;3.55;;;21.50;99.90;;;;;;5043774;28;20394;-75
2022/08/03 06:09:48;;;;;;;6.60;3.35;;;21.50;99.90;;;;;;5051441;28;20730;-74
2022/08/03 06:12:13;;;;;;;4.18;3.33;;;21.50;99.90;;;;;;5051152;28;20040;-73
2022/08/03 06:14:40;;;;;;;5.40;3.28;;;21.50;99.90;;;;;;5041957;28;20425;-74
2022/08/03 06:17:06;;;;;;;6.32;3.60;;;21.50;99.90;;;;;;5044814;28;20032;-74
2022/08/03 06:19:32;;;;;;;6.70;2.95;;;21.50;99.90;;;;;;5046793;28;20569;-74
2022/08/03 06:21:57;;;;;;;5.93;2.70;;;21.60;99.90;;;;;;5046886;28;20112;-74
2022/08/03 06:24:23;;;;;;;9.27;3.17;;;21.50;99.90;;;;;;5048471;28;20045;-74
2022/08/03 06:26:48;;;;;;;5.95;2.70;;;21.60;99.90;;;;;;5041617;28;20371;-73
2022/08/03 06:29:14;;;;;;;8.38;2.83;;;21.60;99.90;;;;;;5050204;28;20098;-74
2022/08/03 06:31:40;;;;;;;7.82;2.42;;;21.70;99.90;;;;;;5047733;28;20029;-74
2022/08/03 06:34:06;;;;;;;10.43;2.50;;;21.70;99.90;;;;;;5051903;28;20037;-74
2022/08/03 06:36:31;;;;;;;6.40;2.30;;;21.80;99.90;;;;;;5044002;28;20501;-74
2022/08/03 06:38:58;;;;;;;5.93;2.53;;;21.80;99.90;;;;;;5038118;28;20022;-74
2022/08/03 06:41:25;;;;;;;6.75;2.15;;;21.80;99.90;;;;;;5037225;28;20379;-74
2022/08/03 06:43:50;;;;;;;6.07;2.53;;;21.90;99.90;;;;;;5042883;28;20039;-74
2022/08/03 06:46:16;;;;;;;9.30;2.20;;;22.00;99.90;;;;;;5048903;28;20030;-74
2022/08/03 06:48:42;;;;;;;8.95;2.42;;;22.00;99.90;;;;;;5049321;28;20064;-74
2022/08/03 06:51:08;;;;;;;8.30;3.08;;;22.10;99.90;;;;;;5046381;28;20033;-74
2022/08/03 06:53:33;;;;;;;4.50;1.95;;;22.20;99.90;;;;;;5042890;28;20024;-74
2022/08/03 06:55:59;;;;;;;4.82;1.98;;;22.30;99.90;;;;;;5050424;28;20429;-74
2022/08/03 06:58:25;;;;;;;7.43;2.03;;;22.30;99.90;;;;;;5050095;28;20037;-74
2022/08/03 07:00:51;;;;;;;10.88;2.38;;;22.30;99.90;;;;;;5045748;28;20052;-74
2022/08/03 07:03:17;;;;;;;10.10;2.20;;;22.50;99.90;;;;;;5045149;28;20049;-74
2022/08/03 07:05:45;;;;;;;6.13;2.13;;;22.50;99.90;;;;;;5040570;28;20036;-73
2022/08/03 07:08:11;;;;;;;5.47;2.05;;;22.70;99.90;;;;;;5049172;28;20028;-75
2022/08/03 07:10:36;;;;;;;4.30;1.85;;;22.80;99.90;;;;;;5043798;28;20032;-74
2022/08/03 07:13:02;;;;;;;5.93;2.03;;;22.90;99.90;;;;;;5041637;28;20466;-74
2022/08/03 07:15:29;;;;;;;8.82;2.13;;;23.00;99.90;;;;;;5041787;28;20021;-74
2022/08/03 07:17:55;;;;;;;5.55;2.03;;;23.10;99.90;;;;;;5042078;28;20033;-74
2022/08/03 07:20:21;;;;;;;6.95;1.90;;;23.10;99.90;;;;;;5040033;28;20040;-74
2022/08/03 07:22:47;;;;;;;6.05;1.95;;;23.20;99.90;;;;;;5042928;28;20033;-74
2022/08/03 07:25:13;;;;;;;7.85;1.80;;;23.40;99.90;;;;;;5045922;28;20503;-74
2022/08/03 07:27:46;;;;;;;7.50;1.77;;;23.50;99.90;;;;;;5048605;28;20029;-75
2022/08/03 07:30:13;;;;;;;5.47;1.80;;;23.60;99.90;;;;;;5040697;28;20025;-75
2022/08/03 07:32:39;;;;;;;3.78;1.27;;;23.70;99.90;;;;;;5037250;28;20032;-76
2022/08/03 07:35:06;;;;;;;6.20;1.70;;;23.80;99.90;;;;;;5043847;28;20026;-75
2022/08/03 07:37:32;;;;;;;3.65;1.58;;;24.00;99.90;;;;;;5035711;28;20021;-74
2022/08/03 07:39:59;;;;;;;6.20;1.38;;;24.10;99.90;;;;;;5042405;28;20587;-75
2022/08/03 07:42:26;;;;;;;5.55;1.80;;;24.20;99.90;;;;;;5038475;28;20037;-74
2022/08/03 07:44:52;;;;;;;5.05;1.55;;;24.40;99.90;;;;;;5040757;28;20044;-75
2022/08/03 07:47:21;;;;;;;5.45;1.20;;;24.50;99.90;;;;;;5040516;28;20481;-74
2022/08/03 07:49:47;;;;;;;6.97;2.33;;;24.60;99.90;;;;;;5044275;28;20017;-75
2022/08/03 07:54:57;;;;;;;4.53;1.58;;;24.80;99.90;;;;;;5045384;28;20048;-74
2022/08/03 07:57:23;;;;;;;7.00;1.77;;;24.80;99.90;;;;;;5048935;28;20029;-76
2022/08/03 07:59:48;;;;;;;8.30;1.65;;;25.00;99.90;;;;;;5041833;28;20478;-77
2022/08/03 08:02:14;;;;;;;8.25;2.17;;;25.00;99.90;;;;;;5046510;28;20039;-77
2022/08/03 08:04:40;;;;;;;8.93;2.17;;;25.20;99.90;;;;;;5034380;28;20057;-76
2022/08/03 08:07:06;;;;;;;5.93;1.95;;;25.30;99.90;;;;;;5047998;28;20475;-76
2022/08/03 08:09:33;;;;;;;5.43;2.20;;;25.30;99.90;;;;;;5041028;28;20057;-77
2022/08/03 08:11:58;;;;;;;6.80;2.45;;;25.40;99.90;;;;;;5044881;28;20025;-76
2022/08/03 08:14:24;;;;;;;9.52;2.47;;;25.60;99.90;;;;;;5047252;28;20028;-76
2022/08/03 08:16:50;;;;;;;9.23;2.13;;;25.80;99.90;;;;;;5037011;28;20545;-76
2022/08/03 08:19:16;;;;;;;8.48;2.20;;;25.80;99.90;;;;;;5043063;28;20033;-76
2022/08/03 08:21:42;;;;;;;6.93;2.58;;;25.90;99.90;;;;;;5040894;28;20494;-76
2022/08/03 08:24:08;;;;;;;9.05;2.10;;;26.10;99.90;;;;;;5050394;28;20051;-74
2022/08/03 08:26:34;;;;;;;7.50;1.70;;;26.20;99.90;;;;;;5038275;28;20429;-74
2022/08/03 08:29:00;;;;;;;5.60;1.80;;;26.30;99.90;;;;;;5040112;28;20041;-73
2022/08/03 08:31:25;;;;;;;5.97;2.00;;;26.40;99.90;;;;;;5037137;28;20144;-76
2022/08/03 08:33:51;;;;;;;6.40;1.98;;;26.50;99.90;;;;;;5040601;28;20081;-75
2022/08/03 08:36:17;;;;;;;8.70;1.95;;;26.60;99.90;;;;;;5034852;28;20104;-74
2022/08/03 08:38:43;;;;;;;9.38;2.42;;;26.70;99.90;;;;;;5039962;28;20013;-74
2022/08/03 08:41:13;;;;;;;8.38;1.70;;;26.80;99.90;;;;;;5044477;28;20033;-76
2022/08/03 08:43:40;;;;;;;8.77;2.15;;;26.80;99.90;;;;;;5035213;28;20064;-77
2022/08/03 08:46:10;;;;;;;7.70;2.33;;;27.00;99.90;;;;;;5045639;28;20025;-73
2022/08/03 08:48:40;;;;;;;9.05;1.63;;;27.20;99.90;;;;;;5040586;28;20035;-77
2022/08/03 08:51:08;;;;;;;8.63;1.80;;;27.30;99.90;;;;;;5047534;28;20033;-76
2022/08/03 08:53:37;;;;;;;6.32;2.42;;;27.60;99.90;;;;;;5041836;28;20032;-77
2022/08/03 08:56:04;;;;;;;10.35;2.10;;;27.70;99.90;;;;;;5039394;28;20026;-76
2022/08/03 08:58:35;;;;;;;8.80;1.75;;;27.80;99.90;;;;;;5047318;28;20478;-76
2022/08/03 09:01:01;;;;;;;9.05;2.05;;;28.00;99.90;;;;;;5036914;28;20068;-75
2022/08/03 09:03:27;;;;;;;8.02;1.65;;;28.20;99.90;;;;;;5050203;28;20137;-84
2022/08/03 09:05:54;;;;;;;8.93;1.60;;;28.20;99.90;;;;;;5045262;28;20026;-79
2022/08/03 09:08:21;;;;;;;7.75;1.98;;;28.30;99.90;;;;;;5045705;28;20108;-82
2022/08/03 09:10:47;;;;;;;9.50;1.60;;;28.40;99.90;;;;;;5040184;28;20018;-76
2022/08/03 09:13:13;;;;;;;5.97;1.60;;;28.40;99.90;;;;;;5044576;28;20033;-82
2022/08/03 09:15:41;;;;;;;7.03;1.77;;;28.50;99.90;;;;;;5044797;28;20123;-82
2022/08/03 09:18:08;;;;;;;8.00;1.55;;;28.40;99.90;;;;;;5050829;28;20030;-77
2022/08/03 09:20:35;;;;;;;4.05;1.23;;;28.60;99.90;;;;;;5050028;28;20017;-78
2022/08/03 09:23:03;;;;;;;7.50;1.55;;;28.70;99.90;;;;;;5052055;28;20124;-80
2022/08/03 09:25:29;;;;;;;5.28;1.80;;;28.90;99.90;;;;;;5047465;28;20040;-78
2022/08/03 09:28:02;;;;;;;4.50;1.38;;;29.00;99.90;;;;;;5055651;28;20473;-80
2022/08/03 09:30:28;;;;;;;5.65;1.90;;;29.20;99.80;;;;;;5043326;28;20029;-82
2022/08/03 09:33:12;;;;;;;7.18;1.60;;;29.40;99.40;;;;;;5046323;28;20021;-80
2022/08/03 09:35:44;;;;;;;8.68;1.60;;;29.40;99.30;;;;;;5043409;28;20021;-83
2022/08/03 09:38:26;;;;;;;9.15;1.60;;;29.60;99.00;;;;;;5047221;28;20024;-77
2022/08/03 09:40:52;;;;;;;7.53;1.60;;;29.70;98.00;;;;;;5047128;28;20045;-80
2022/08/03 09:43:18;;;;;;;3.88;1.35;;;29.90;98.10;;;;;;5038889;28;20034;-78
2022/08/03 09:45:44;;;;;;;4.25;1.20;;;29.90;96.90;;;;;;5041960;28;20037;-75
2022/08/03 09:48:24;;;;;;;4.53;1.35;;;30.00;96.40;;;;;;5053366;28;20071;-80
2022/08/03 09:50:52;;;;;;;5.45;1.60;;;30.00;97.40;;;;;;5048259;28;20069;-79
2022/08/03 09:53:18;;;;;;;6.80;1.88;;;30.20;96.80;;;;;;5043202;28;20026;-78
2022/08/03 09:56:02;;;;;;;3.92;1.38;;;30.10;96.20;;;;;;5045549;28;20113;-83
2022/08/03 09:58:30;;;;;;;5.00;1.48;;;30.20;95.50;;;;;;5049711;28;20037;-77
2022/08/03 10:00:59;;;;;;;8.10;1.30;;;30.30;96.50;;;;;;5045213;28;20045;-82
2022/08/03 10:03:27;;;;;;;6.18;1.63;;;30.40;96.00;;;;;;5046373;28;20033;-77
2022/08/03 10:05:54;;;;;;;5.45;1.77;;;30.50;95.60;;;;;;5049090;28;20021;-78
2022/08/03 10:08:21;;;;;;;7.70;1.48;;;30.60;94.90;;;;;;5040788;28;20029;-84
2022/08/03 10:10:49;;;;;;;3.85;1.42;;;30.80;95.20;;;;;;5044331;28;20014;-81
2022/08/03 10:13:18;;;;;;;6.57;1.58;;;30.90;93.70;;;;;;5042617;28;20070;-83
2022/08/03 10:15:46;;;;;;;4.95;1.60;;;31.00;94.20;;;;;;5042408;28;20021;-82
2022/08/03 10:18:14;;;;;;;7.88;1.58;;;31.10;93.80;;;;;;5044328;28;20531;-82
2022/08/03 10:20:48;;;;;;;4.13;1.60;;;31.20;93.60;;;;;;5045127;28;20021;-81
2022/08/03 10:23:15;;;;;;;8.40;1.30;;;31.20;93.70;;;;;;5041027;28;20076;-82
2022/08/03 10:25:45;;;;;;;7.95;1.65;;;31.40;92.60;;;;;;5049665;28;20025;-86
2022/08/03 10:28:14;;;;;;;3.15;1.38;;;31.50;93.00;;;;;;5048995;28;20035;-77
2022/08/03 10:30:44;;;;;;;7.30;1.38;;;31.60;92.30;;;;;;5043658;28;20025;-77
2022/08/03 10:33:33;;;;;;;9.00;1.42;;;31.70;92.00;;;;;;5051843;28;20032;-76
2022/08/03 10:36:00;;;;;;;6.90;1.30;;;31.70;91.50;;;;;;5042970;28;20025;-76
2022/08/03 10:38:31;;;;;;;9.20;1.40;;;31.80;91.30;;;;;;5047964;28;20032;-74
2022/08/03 10:41:00;;;;;;;4.13;1.25;;;31.90;92.10;;;;;;5054246;28;20025;-76
2022/08/03 10:43:33;;;;;;;6.05;1.58;;;32.10;93.00;;;;;;5044509;28;20029;-77
2022/08/03 10:46:01;;;;;;;5.65;1.27;;;32.30;91.70;;;;;;5045109;28;20033;-73
2022/08/03 10:48:27;;;;;;;6.43;1.55;;;32.20;91.80;;;;;;5044938;28;20025;-73
2022/08/03 10:50:53;;;;;;;4.20;1.33;;;32.20;90.50;;;;;;5043850;28;20455;-75
2022/08/03 10:53:41;;;;;;;4.32;1.27;;;32.20;91.60;;;;;;5043957;28;20036;-72
2022/08/03 10:59:45;;;;;;;5.72;1.20;;;32.50;91.10;;;;;;5047793;28;20043;-72
2022/08/03 11:02:12;;;;;;;5.25;1.05;;;32.70;91.20;;;;;;5045826;28;20036;-76
2022/08/03 11:04:39;;;;;;;6.03;1.40;;;32.80;92.60;;;;;;5042838;28;20030;-75
2022/08/03 11:07:24;;;;;;;4.47;1.60;;;32.80;90.40;;;;;;5053128;28;20017;-74
2022/08/03 11:09:53;;;;;;;5.32;1.83;;;32.90;91.40;;;;;;5046285;28;20048;-73
2022/08/03 11:12:27;;;;;;;4.22;1.27;;;33.00;91.90;;;;;;5041443;28;20057;-73
2022/08/03 11:14:55;;;;;;;3.42;1.30;;;33.10;91.00;;;;;;5044037;28;20037;-76
2022/08/03 11:17:21;;;;;;;5.50;1.60;;;33.20;90.60;;;;;;5045748;28;20033;-75
2022/08/03 11:19:49;;;;;;;4.28;1.38;;;33.10;91.70;;;;;;5042795;28;20100;-77
2022/08/03 11:22:15;;;;;;;6.97;1.65;;;33.30;92.00;;;;;;5048598;28;20017;-76
2022/08/03 11:24:42;;;;;;;3.75;1.13;;;33.40;91.50;;;;;;5042222;28;20095;-75
2022/08/03 11:27:14;;;;;;;3.42;1.77;;;33.30;91.70;;;;;;5046799;28;20033;-77
2022/08/03 11:29:56;;;;;;;7.03;1.27;;;33.30;91.00;;;;;;5040642;28;20084;-77
2022/08/03 11:32:37;;;;;;;4.65;1.50;;;33.30;90.50;;;;;;5042538;28;20390;-77
2022/08/03 11:35:14;;;;;;;6.72;1.65;;;33.40;91.00;;;;;;5044139;28;20397;-77
2022/08/03 11:38:04;;;;;;;6.32;1.50;;;33.40;90.20;;;;;;5041412;28;20217;-77
2022/08/03 11:40:39;;;;;;;9.45;1.45;;;33.30;90.80;;;;;;5045575;28;20417;-76
2022/08/03 11:43:29;;;;;;;5.03;1.50;;;33.50;90.70;;;;;;5042883;28;20037;-77
2022/08/03 11:46:02;;;;;;;5.43;1.63;;;33.60;90.70;;;;;;5046569;28;20386;-75
2022/08/03 11:48:37;;;;;;;4.68;1.58;;;33.60;90.90;;;;;;5046492;28;20021;-76
2022/08/03 11:51:05;;;;;;;5.50;1.67;;;33.60;90.30;;;;;;5045468;28;20096;-76
2022/08/03 11:53:31;;;;;;;5.78;1.80;;;33.50;90.50;;;;;;5041561;28;20025;-75
2022/08/03 11:56:01;;;;;;;5.32;1.70;;;33.70;90.00;;;;;;5039141;28;20108;-78
2022/08/03 11:58:28;;;;;;;7.07;1.50;;;33.80;90.50;;;;;;5044509;28;20040;-77
2022/08/03 12:01:03;;;;;;;3.95;1.35;;;33.80;90.10;;;;;;5043616;28;20040;-78
2022/08/03 12:03:33;;;;;;;4.50;1.95;;;33.90;90.50;;;;;;5047941;28;20047;-74
2022/08/03 12:06:01;;;;;;;7.20;2.10;;;33.90;90.90;;;;;;5043429;28;20110;-73
2022/08/03 12:08:26;;;;;;;7.43;1.65;;;34.00;90.50;;;;;;5040692;28;20026;-74
2022/08/03 12:10:54;;;;;;;9.00;1.75;;;34.00;90.70;;;;;;5050889;28;20536;-74
2022/08/03 12:13:20;;;;;;;7.32;1.95;;;34.10;90.70;;;;;;5037853;28;20080;-75
2022/08/03 12:15:51;;;;;;;6.07;1.58;;;34.10;90.80;;;;;;5046936;28;20037;-77
2022/08/03 12:18:19;;;;;;;2.92;1.55;;;33.80;89.90;;;;;;5043194;28;20394;-77
2022/08/03 12:20:45;;;;;;;4.88;1.40;;;34.00;90.30;;;;;;5043774;28;20013;-76
2022/08/03 12:23:11;;;;;;;7.38;1.88;;;34.00;90.10;;;;;;5049457;28;20032;-76
2022/08/03 12:25:40;;;;;;;5.57;1.67;;;34.10;90.30;;;;;;5040280;28;20025;-76
2022/08/03 12:28:10;;;;;;;6.72;1.65;;;34.20;89.20;;;;;;5050872;28;20368;-76
2022/08/03 12:30:39;;;;;;;3.55;1.42;;;34.20;90.70;;;;;;5041586;28;20116;-76
2022/08/03 12:33:22;;;;;;;2.80;1.63;;;34.30;90.30;;;;;;5046436;28;20072;-75
2022/08/03 12:35:49;;;;;;;4.35;1.50;;;33.90;90.30;;;;;;5042959;28;20083;-75
2022/08/03 12:38:20;;;;;;;9.95;1.80;;;33.70;90.30;;;;;;5045596;28;20029;-76
2022/08/03 12:40:58;;;;;;;5.30;1.25;;;33.90;90.60;;;;;;5042755;28;20028;-76
2022/08/03 12:43:24;;;;;;;3.08;1.48;;;34.20;89.70;;;;;;5040709;28;20481;-75
2022/08/03 12:45:50;;;;;;;6.20;1.58;;;33.80;88.60;;;;;;5044364;28;20104;-75
2022/08/03 12:48:16;;;;;;;5.32;1.30;;;33.40;90.00;;;;;;5046578;28;20063;-75
2022/08/03 12:50:41;;;;;;;3.83;1.80;;;33.50;90.90;;;;;;5041093;28;20025;-75
2022/08/03 12:53:09;;;;;;;7.05;1.58;;;33.70;90.40;;;;;;5042999;28;20021;-76
2022/08/03 12:55:36;;;;;;;6.20;1.90;;;33.70;90.70;;;;;;5046423;28;20061;-75
2022/08/03 12:58:03;;;;;;;3.65;1.50;;;33.90;89.90;;;;;;5044703;28;20037;-75
2022/08/03 13:00:29;;;;;;;4.13;1.45;;;34.00;89.70;;;;;;5046008;28;20397;-74
2022/08/03 13:03:04;;;;;;;4.55;1.50;;;34.10;89.30;;;;;;5040187;28;20037;-74
2022/08/03 13:05:30;;;;;;;4.63;1.38;;;34.10;90.40;;;;;;5042345;28;20030;-75